createdAt,value
2019-04-11T00:02:14.329Z,3.10
2019-04-11T00:04:46.325Z,3.20
2019-04-11T00:07:18.068Z,3.10
2019-04-11T00:09:43.609Z,3.00
2019-04-11T00:12:40.938Z,3.00
2019-04-11T00:15:02.894Z,2.90
2019-04-11T00:17:36.295Z,2.90
2019-04-11T00:19:40.661Z,2.80
2019-04-11T00:21:53.164Z,2.90
2019-04-11T00:24:29.731Z,2.80
2019-04-11T00:26:42.040Z,2.80
2019-04-11T00:29:07.023Z,2.80
2019-04-11T00:31:25.712Z,2.80
2019-04-11T00:33:58.509Z,2.80
2019-04-11T00:36:44.266Z,2.80
2019-04-11T00:39:11.114Z,2.80
2019-04-11T00:41:28.095Z,2.70
2019-04-11T00:44:02.892Z,2.70
2019-04-11T00:46:16.924Z,2.70
2019-04-11T00:48:46.161Z,2.60
2019-04-11T00:51:07.742Z,2.60
2019-04-11T00:53:48.089Z,2.60
2019-04-11T00:56:10.859Z,2.60
2019-04-11T00:58:34.289Z,2.50
2019-04-11T01:00:29.447Z,2.50
2019-04-11T01:02:47.557Z,2.50
2019-04-11T01:05:26.003Z,2.50
2019-04-11T01:08:03.636Z,2.30
2019-04-11T01:10:47.696Z,2.30
2019-04-11T01:13:15.747Z,2.30
2019-04-11T01:15:54.439Z,2.30
2019-04-11T01:18:58.772Z,2.30
2019-04-11T01:21:15.920Z,2.30
2019-04-11T01:23:41.528Z,2.30
2019-04-11T01:26:08.724Z,2.10
2019-04-11T01:28:38.604Z,2.20
2019-04-11T01:31:05.703Z,2.10
2019-04-11T01:33:40.144Z,2.10
2019-04-11T01:35:43.714Z,2.10
2019-04-11T01:38:04.278Z,2.10
2019-04-11T01:40:38.158Z,2.00
2019-04-11T01:42:59.703Z,2.00
2019-04-11T01:45:09.596Z,2.00
2019-04-11T01:47:59.687Z,2.00
2019-04-11T01:50:27.103Z,1.90
2019-04-11T01:53:07.339Z,1.90
2019-04-11T01:55:34.865Z,1.90
2019-04-11T01:58:02.538Z,1.80
2019-04-11T02:00:48.854Z,1.90
2019-04-11T02:03:03.307Z,1.80
2019-04-11T02:05:34.884Z,1.80
2019-04-11T02:08:13.672Z,1.80
2019-04-11T02:10:32.737Z,1.80
2019-04-11T02:13:05.833Z,1.70
2019-04-11T02:15:58.342Z,1.70
2019-04-11T02:18:15.087Z,1.70
2019-04-11T02:20:51.429Z,1.70
2019-04-11T02:23:21.546Z,1.60
2019-04-11T02:26:03.081Z,1.50
2019-04-11T02:28:25.186Z,1.50
2019-04-11T02:30:46.423Z,1.60
2019-04-11T02:33:51.344Z,1.60
2019-04-11T02:36:38.379Z,1.60
2019-04-11T02:38:59.366Z,1.60
2019-04-11T02:41:05.615Z,1.50
2019-04-11T02:43:29.568Z,1.40
2019-04-11T02:46:23.242Z,1.50
2019-04-11T02:48:42.500Z,1.40
2019-04-11T02:51:24.796Z,1.50
2019-04-11T02:56:06.248Z,1.40
2019-04-11T02:58:23.044Z,1.40
2019-04-11T03:00:59.297Z,1.40
2019-04-11T03:16:29.587Z,1.50
2019-04-11T03:18:53.511Z,1.40
2019-04-11T03:21:14.613Z,1.30
2019-04-11T03:24:10.372Z,1.30
2019-04-11T03:26:41.220Z,1.20
2019-04-11T03:36:28.977Z,1.10
2019-04-11T03:38:12.475Z,1.10
2019-04-11T03:40:43.954Z,1.00
2019-04-11T03:43:21.138Z,1.00
2019-04-11T03:46:01.483Z,1.00
2019-04-11T03:48:18.130Z,0.80
2019-04-11T03:50:42.479Z,0.90
2019-04-11T03:53:04.744Z,0.80
2019-04-11T03:55:28.366Z,0.80
2019-04-11T04:01:11.538Z,0.80
2019-04-11T04:03:55.437Z,0.70
2019-04-11T04:10:20.492Z,0.70
2019-04-11T04:13:03.215Z,0.70
2019-04-11T04:19:22.692Z,0.70
2019-04-11T04:22:15.791Z,0.70
2019-04-11T04:29:37.727Z,0.50
2019-04-11T04:32:19.282Z,0.50
2019-04-11T04:35:01.722Z,0.50
2019-04-11T04:37:33.790Z,0.60
2019-04-11T04:40:31.473Z,0.60
2019-04-11T04:43:02.802Z,0.60
2019-04-11T04:46:04.423Z,0.50
2019-04-11T04:48:29.423Z,0.50
2019-04-11T04:51:09.127Z,0.50
2019-04-11T04:53:52.202Z,0.60
2019-04-11T04:56:24.812Z,0.50
2019-04-11T04:59:16.367Z,0.50
2019-04-11T05:02:20.545Z,0.60
2019-04-11T05:04:29.729Z,0.60
2019-04-11T05:07:19.378Z,0.70
2019-04-11T05:16:44.197Z,1.10
2019-04-11T05:20:03.113Z,1.60
2019-04-11T05:22:19.022Z,2.00
2019-04-11T06:32:40.278Z,4.50
2019-04-11T06:38:18.515Z,4.40
2019-04-11T06:40:57.744Z,4.30
2019-04-11T06:43:20.234Z,4.30
2019-04-11T06:45:58.678Z,4.40
2019-04-11T06:48:29.671Z,4.40
2019-04-11T06:51:28.145Z,4.50
2019-04-11T06:53:32.156Z,4.60
2019-04-11T06:55:47.143Z,4.70
2019-04-11T06:57:58.535Z,4.80
2019-04-11T07:00:20.806Z,4.90
2019-04-11T07:02:53.610Z,4.90
2019-04-11T07:05:04.432Z,5.00
2019-04-11T07:09:35.500Z,5.20
2019-04-11T07:11:44.806Z,5.30
2019-04-11T07:14:04.121Z,5.40
2019-04-11T07:16:13.322Z,5.50
2019-04-11T07:18:50.622Z,5.60
2019-04-11T07:20:52.368Z,5.60
2019-04-11T07:23:55.873Z,5.70
2019-04-11T07:26:25.222Z,5.70
2019-04-11T07:29:06.575Z,5.90
2019-04-11T07:34:24.577Z,6.10
2019-04-11T07:36:53.577Z,6.00
2019-04-11T07:42:07.045Z,6.30
2019-04-11T07:44:11.435Z,6.30
2019-04-11T07:48:42.637Z,6.50
2019-04-11T07:51:15.280Z,6.60
2019-04-11T07:53:28.563Z,6.70
2019-04-11T07:55:51.254Z,6.90
2019-04-11T07:58:38.350Z,6.80
2019-04-11T08:01:34.353Z,6.90
2019-04-11T08:04:08.444Z,7.00
2019-04-11T08:06:50.190Z,7.00
2019-04-11T08:09:33.874Z,7.20
2019-04-11T08:12:19.530Z,7.40
2019-04-11T08:15:01.622Z,7.40
2019-04-11T08:17:46.146Z,7.60
2019-04-11T08:20:29.025Z,7.70
2019-04-11T08:22:49.577Z,7.80
2019-04-11T08:25:57.946Z,7.80
2019-04-11T08:28:05.915Z,7.90
2019-04-11T08:30:26.545Z,8.00
2019-04-11T08:33:07.494Z,8.00
2019-04-11T08:36:09.283Z,8.00
2019-04-11T08:38:38.254Z,8.00
2019-04-11T08:41:13.520Z,8.00
2019-04-11T08:43:37.326Z,8.10
2019-04-11T08:46:20.557Z,8.30
2019-04-11T08:51:09.714Z,8.70
2019-04-11T08:54:02.681Z,8.80
2019-04-11T08:56:51.527Z,9.00
2019-04-11T08:59:53.954Z,9.10
2019-04-11T09:02:06.839Z,8.90
2019-04-11T09:04:50.316Z,8.90
2019-04-11T09:07:31.644Z,9.00
2019-04-11T09:10:21.955Z,9.20
2019-04-11T09:16:09.615Z,9.50
2019-04-11T09:18:25.995Z,9.60
2019-04-11T09:21:24.397Z,9.70
2019-04-11T09:23:58.370Z,9.40
2019-04-11T09:26:34.109Z,9.30
2019-04-11T09:28:55.884Z,9.30
2019-04-11T09:31:49.083Z,9.30
2019-04-11T09:34:39.730Z,9.50
2019-04-11T09:37:22.195Z,9.80
2019-04-11T09:40:21.096Z,10.00
2019-04-11T09:43:01.780Z,10.20
2019-04-11T09:45:35.390Z,10.70
2019-04-11T09:48:08.349Z,10.90
2019-04-11T09:50:44.751Z,10.90
2019-04-11T09:53:10.001Z,10.60
2019-04-11T09:55:41.739Z,10.30
2019-04-11T09:58:42.501Z,10.10
2019-04-11T10:01:42.927Z,10.30
2019-04-11T10:10:43.421Z,10.60
2019-04-11T10:20:16.229Z,11.60
2019-04-11T10:29:21.500Z,12.10
2019-04-11T10:31:54.806Z,11.40
2019-04-11T10:34:57.695Z,11.40
2019-04-11T10:37:47.709Z,11.40
2019-04-11T10:40:58.703Z,11.90
2019-04-11T10:45:47.255Z,13.30
2019-04-11T10:48:39.479Z,13.80
2019-04-11T10:51:43.909Z,14.20
2019-04-11T10:54:13.936Z,14.30
2019-04-11T10:56:54.394Z,14.30
2019-04-11T10:59:20.048Z,14.20
2019-04-11T11:02:00.160Z,13.90
2019-04-11T11:05:05.547Z,13.80
2019-04-11T11:07:26.656Z,12.80
2019-04-11T11:10:31.637Z,12.90
2019-04-11T11:13:21.679Z,13.00
2019-04-11T11:16:07.368Z,12.80
2019-04-11T11:19:15.687Z,12.50
2019-04-11T11:21:26.329Z,12.30
2019-04-11T11:24:10.770Z,12.10
2019-04-11T11:26:52.094Z,11.80
2019-04-11T11:29:56.191Z,11.60
2019-04-11T11:32:49.631Z,11.60
2019-04-11T11:35:27.567Z,11.40
2019-04-11T11:38:47.908Z,11.40
2019-04-11T11:41:12.347Z,11.30
2019-04-11T11:46:25.842Z,11.70
2019-04-11T11:49:10.114Z,11.70
2019-04-11T11:54:48.058Z,12.60
2019-04-11T12:00:00.684Z,12.60
2019-04-11T12:02:22.982Z,12.70
2019-04-11T12:05:20.807Z,12.90
2019-04-11T12:08:04.293Z,12.80
2019-04-11T12:10:55.420Z,13.00
2019-04-11T12:13:39.450Z,13.00
2019-04-11T12:16:22.155Z,13.20
2019-04-11T12:19:04.622Z,13.40
2019-04-11T12:21:38.816Z,12.90
2019-04-11T12:25:25.109Z,13.10
2019-04-11T12:26:37.916Z,13.10
2019-04-11T12:29:30.439Z,13.50
2019-04-11T12:32:02.004Z,13.60
2019-04-11T12:34:43.952Z,13.60
2019-04-11T12:37:23.176Z,13.80
2019-04-11T12:40:10.439Z,13.80
2019-04-11T12:42:36.365Z,14.10
2019-04-11T12:45:45.896Z,14.50
2019-04-11T12:48:31.641Z,14.70
2019-04-11T12:51:03.778Z,14.80
2019-04-11T12:56:53.506Z,14.40
2019-04-11T12:59:51.360Z,14.00
2019-04-11T13:02:48.402Z,13.60
2019-04-11T13:05:17.760Z,13.50
2019-04-11T13:08:09.650Z,13.60
2019-04-11T13:10:46.644Z,13.90
2019-04-11T13:13:19.174Z,13.20
2019-04-11T13:19:07.415Z,13.50
2019-04-11T13:25:03.383Z,13.70
2019-04-11T13:27:44.637Z,13.40
2019-04-11T13:33:04.536Z,13.20
2019-04-11T13:35:28.808Z,12.90
2019-04-11T13:38:03.219Z,13.00
2019-04-11T13:40:37.562Z,13.20
2019-04-11T13:43:31.183Z,13.70
2019-04-11T13:49:33.369Z,14.20
2019-04-11T13:52:03.864Z,13.90
2019-04-11T13:54:49.084Z,13.60
2019-04-11T13:57:22.381Z,13.50
2019-04-11T14:03:29.150Z,13.70
2019-04-11T14:05:50.255Z,14.00
2019-04-11T14:08:48.488Z,14.00
2019-04-11T14:11:33.796Z,13.40
2019-04-11T14:14:42.456Z,13.40
2019-04-11T14:17:22.721Z,13.30
2019-04-11T14:19:55.591Z,13.50
2019-04-11T14:22:28.937Z,13.40
2019-04-11T14:25:00.309Z,13.50
2019-04-11T14:27:46.981Z,13.50
2019-04-11T14:30:52.519Z,13.50
2019-04-11T14:33:10.737Z,12.80
2019-04-11T14:35:57.782Z,12.80
2019-04-11T14:38:46.505Z,13.00
2019-04-11T14:41:18.786Z,13.10
2019-04-11T14:43:40.379Z,13.20
2019-04-11T14:46:36.510Z,12.80
2019-04-11T14:49:11.400Z,12.70
2019-04-11T14:51:49.261Z,12.70
2019-04-11T14:54:24.318Z,12.20
2019-04-11T14:56:52.193Z,12.10
2019-04-11T14:59:24.753Z,12.20
2019-04-11T15:01:49.970Z,12.30
2019-04-11T15:04:47.217Z,12.50
2019-04-11T15:07:30.183Z,12.60
2019-04-11T15:09:55.948Z,12.50
2019-04-11T15:12:22.175Z,12.50
2019-04-11T15:15:26.772Z,12.40
2019-04-11T15:21:06.774Z,12.30
2019-04-11T15:23:46.521Z,12.00
2019-04-11T15:26:57.416Z,11.80
2019-04-11T15:29:41.108Z,11.60
2019-04-11T15:32:31.257Z,11.90
2019-04-11T15:35:11.216Z,11.90
2019-04-11T15:40:59.382Z,11.60
2019-04-11T15:43:44.799Z,11.30
2019-04-11T15:46:32.965Z,10.90
2019-04-11T15:49:20.558Z,10.70
2019-04-11T15:51:40.773Z,10.70
2019-04-11T15:54:19.381Z,10.70
2019-04-11T15:57:12.225Z,10.80
2019-04-11T15:59:58.631Z,11.00
2019-04-11T16:02:44.696Z,10.70
2019-04-11T16:08:10.213Z,10.30
2019-04-11T16:10:54.884Z,10.20
2019-04-11T16:13:21.602Z,10.20
2019-04-11T16:16:12.689Z,10.20
2019-04-11T16:18:49.967Z,10.20
2019-04-11T16:24:10.994Z,10.30
2019-04-11T16:27:11.285Z,10.40
2019-04-11T16:30:00.320Z,10.40
2019-04-11T16:33:55.002Z,10.30
2019-04-11T16:36:18.287Z,10.20
2019-04-11T16:38:30.478Z,10.20
2019-04-11T16:41:30.197Z,10.20
2019-04-11T16:44:18.297Z,10.10
2019-04-11T16:47:09.960Z,10.10
2019-04-11T16:49:52.326Z,10.00
2019-04-11T16:52:43.898Z,10.00
2019-04-11T16:55:10.636Z,10.00
2019-04-11T16:58:15.197Z,9.90
2019-04-11T17:00:54.633Z,9.90
2019-04-11T17:03:33.996Z,9.80
2019-04-11T17:06:15.963Z,9.70
2019-04-11T17:09:41.974Z,9.70
2019-04-11T17:12:56.063Z,9.60
2019-04-11T17:15:31.225Z,9.50
2019-04-11T17:23:51.563Z,9.40
2019-04-11T17:26:14.562Z,9.30
2019-04-11T17:31:43.020Z,9.10
2019-04-11T17:36:35.623Z,8.90
2019-04-11T17:39:31.543Z,8.90
2019-04-11T17:41:56.577Z,8.90
2019-04-11T17:44:57.236Z,8.90
2019-04-11T17:48:08.743Z,8.90
2019-04-11T17:57:08.598Z,8.60
2019-04-11T18:00:30.076Z,8.60
2019-04-11T18:02:34.904Z,8.50
2019-04-11T18:11:25.742Z,8.40
2019-04-11T18:13:53.717Z,8.40
2019-04-11T18:16:31.674Z,8.30
2019-04-11T18:22:32.728Z,8.20
2019-04-11T18:31:53.021Z,8.00
2019-04-11T18:34:48.064Z,8.00
2019-04-11T18:44:09.372Z,7.80
2019-04-11T18:47:00.462Z,7.80
2019-04-11T18:53:22.163Z,7.70
2019-04-11T18:55:12.596Z,7.70
2019-04-11T19:01:21.779Z,7.80
2019-04-11T19:10:16.199Z,7.80
2019-04-11T19:29:39.023Z,7.80
2019-04-11T19:39:05.656Z,7.80
2019-04-11T19:44:58.299Z,7.70
2019-04-11T19:48:12.532Z,7.70
2019-04-11T20:01:15.500Z,7.50
2019-04-11T20:04:06.389Z,7.50
2019-04-11T20:07:05.387Z,7.50
2019-04-11T20:13:43.541Z,7.50
2019-04-11T20:44:58.211Z,7.30
2019-04-11T20:50:33.248Z,7.20
2019-04-11T20:54:01.267Z,7.20
2019-04-11T20:56:42.363Z,7.10
2019-04-11T21:21:37.507Z,6.80
2019-04-11T21:24:33.889Z,6.70
2019-04-11T21:27:41.847Z,6.70
2019-04-11T21:30:30.502Z,6.70
2019-04-11T21:33:48.272Z,6.70
2019-04-11T21:36:40.330Z,6.60
2019-04-11T21:39:33.096Z,6.60
2019-04-11T21:41:55.894Z,6.60
2019-04-11T21:45:18.113Z,6.50
2019-04-11T21:51:00.066Z,6.40
2019-04-11T21:56:39.465Z,6.40
2019-04-11T22:06:00.085Z,6.30
2019-04-11T22:08:31.928Z,6.20
2019-04-11T22:11:19.429Z,6.20
2019-04-11T22:14:11.167Z,6.10
2019-04-11T22:17:14.883Z,6.10
2019-04-11T22:19:45.904Z,6.10
2019-04-11T22:22:38.687Z,6.00
2019-04-11T22:25:39.611Z,5.90
2019-04-11T22:27:58.468Z,5.90
2019-04-11T22:30:56.447Z,5.90
2019-04-11T22:34:08.009Z,5.90
2019-04-11T22:36:43.596Z,5.90
2019-04-11T22:39:06.359Z,5.90
2019-04-11T22:41:40.794Z,5.90
2019-04-11T22:44:25.645Z,5.90
2019-04-11T22:46:47.080Z,6.00
2019-04-11T22:49:44.561Z,6.00
2019-04-11T22:52:11.445Z,6.00
2019-04-11T22:54:32.782Z,6.00
2019-04-11T23:00:09.317Z,6.00
2019-04-11T23:03:17.041Z,6.10
2019-04-11T23:06:01.185Z,6.10
2019-04-11T23:08:35.694Z,6.00
2019-04-11T23:11:10.873Z,6.10
2019-04-11T23:14:27.378Z,6.10
2019-04-11T23:17:00.940Z,6.10
2019-04-11T23:19:27.149Z,6.10
2019-04-11T23:22:27.927Z,6.10
2019-04-11T23:25:17.700Z,6.10
2019-04-11T23:28:00.630Z,6.10
2019-04-11T23:41:39.349Z,6.10
2019-04-11T23:43:54.809Z,6.10
2019-04-11T23:50:24.921Z,6.00
2019-04-11T23:52:57.252Z,6.00
2019-04-11T23:55:30.721Z,5.90
2019-04-11T23:58:05.710Z,5.90
